Anniston, AL (36207)

1:07 PM CDT on May 25, 2017 (GMT -0500)
Wesson Aviation | | Change Station

Elev 659 ft 33.58 °N, 85.82 °W | Updated 11 minutes ago

Mostly Cloudy
Mostly Cloudy
68.8 °F
Feels Like 68.8 °F
N
2.0
Wind Variable Wind from SE
Gusts 11.0 mph

Today
High -- | Low -- °F
--% Chance of Precip.
Yesterday
High -- | Low -- °F
Precip. -- in
Pressure 29.83 in
Visibility 10.0 miles
Clouds Scattered Clouds 4700 ft
Dew Point 55 °F
Humidity 61%
Rainfall 0.00 in
Snow Depth Not available.
5:36 AM 7:44 PM
Waning Crescent, 0% visible
METAR KANB 251753Z AUTO 28012G18KT 10SM SCT047 20/09 A2984 RMK AO2 SLP102 T02000094 10206 20128 51011
Pressure 29.83 in
Visibility 10.0 miles
Clouds Scattered Clouds 4700 ft
Dew Point 55 °F
Humidity 61%
Rainfall 0.00 in
Snow Depth Not available.
5:36 AM 7:44 PM
Waning Crescent, 0% visible
METAR KANB 251753Z AUTO 28012G18KT 10SM SCT047 20/09 A2984 RMK AO2 SLP102 T02000094 10206 20128 51011

Get Severe Weather Alerts

Thanks for signing up!

Be on the lookout for a verification email in your inbox.

You'll start receiving the daily forecast at 6 AM.

×

10-Day Weather Forecast

Almanac

Astronomy

May. 25, 2017 Rise Set
Actual Time
Civil Twilight
Nautical Twilight
Astronomical Twilight
Moon
Length of Visible Light
Length of Day
Tomorrow will be .
, % of the Moon is Illuminated

Today's Extremes

State Highs State Lows

Community

WunderPhotos

Category 6

Welcome to Category 6. This is the collective home for Weather Underground's featured writeups by Dr. Jeff Masters (right), Bob Henson (left), Chris Burt, and other regular contributors.

Nearby

Air Quality

  Air Quality AQ Index Pollutant
Not available.

Snow Depth

Station Depth Elevation

Earthquake Activity

City Distance Mag. Time & Date
Minimum magnitude displayed is 2.5.

Coastal Water Temperatures

Place Temperature

Stations

Nearby Weather Stations

Station Location Temp. Windchill Dew Point Humidity Wind Precip. Elev Updated Type
                   

Watches & Warnings

There are currently no watches in effect.